createdAt,value
2023-05-02T00:01:36.227Z,13.40
2023-05-02T00:04:03.470Z,13.60
2023-05-02T00:06:31.859Z,13.80
2023-05-02T00:08:59.171Z,13.90
2023-05-02T00:11:27.514Z,13.90
2023-05-02T00:13:54.521Z,13.80
2023-05-02T00:16:21.620Z,13.70
2023-05-02T00:18:49.339Z,13.70
2023-05-02T00:21:16.506Z,13.80
2023-05-02T00:23:43.325Z,13.50
2023-05-02T00:26:10.686Z,13.50
2023-05-02T00:28:37.768Z,13.30
2023-05-02T00:31:07.988Z,13.20
2023-05-02T00:33:34.709Z,13.30
2023-05-02T00:36:02.088Z,13.30
2023-05-02T00:38:28.931Z,13.30
2023-05-02T00:40:56.518Z,13.20
2023-05-02T00:43:23.229Z,13.10
2023-05-02T00:45:52.113Z,12.90
2023-05-02T00:48:21.090Z,12.80
2023-05-02T00:50:48.179Z,12.80
2023-05-02T00:53:15.963Z,12.70
2023-05-02T00:55:43.200Z,12.70
2023-05-02T00:58:15.231Z,12.70
2023-05-02T01:01:05.341Z,12.70
2023-05-02T01:03:36.729Z,12.70
2023-05-02T01:06:49.703Z,12.80
2023-05-02T01:09:30.998Z,12.70
2023-05-02T01:12:04.212Z,12.60
2023-05-02T01:14:45.576Z,12.50
2023-05-02T01:17:15.542Z,12.40
2023-05-02T01:19:52.903Z,12.40
2023-05-02T01:22:21.376Z,12.30
2023-05-02T01:24:58.263Z,12.30
2023-05-02T01:27:37.790Z,12.30
2023-05-02T01:30:06.397Z,12.20
2023-05-02T01:32:37.338Z,12.20
2023-05-02T01:35:05.987Z,12.30
2023-05-02T01:37:36.284Z,12.30
2023-05-02T01:40:06.093Z,12.40
2023-05-02T01:42:36.059Z,12.30
2023-05-02T01:45:05.510Z,12.40
2023-05-02T01:47:35.202Z,12.40
2023-05-02T01:50:07.294Z,12.40
2023-05-02T01:52:35.392Z,12.40
2023-05-02T01:55:05.086Z,12.40
2023-05-02T01:57:32.849Z,12.40
2023-05-02T02:00:00.751Z,12.50
2023-05-02T02:07:51.890Z,12.50
2023-05-02T02:13:13.770Z,12.70
2023-05-02T02:26:29.830Z,12.50
2023-05-02T02:28:56.700Z,12.40
2023-05-02T02:31:26.207Z,12.40
2023-05-02T02:41:52.633Z,12.50
2023-05-02T02:44:30.941Z,12.40
2023-05-02T02:47:09.630Z,12.20
2023-05-02T02:52:25.791Z,12.30
2023-05-02T02:55:12.476Z,12.10
2023-05-02T02:58:09.197Z,12.10
2023-05-02T03:00:36.569Z,12.40
2023-05-02T03:03:03.617Z,12.40
2023-05-02T03:05:33.271Z,12.50
2023-05-02T03:08:01.036Z,12.50
2023-05-02T03:10:27.714Z,12.40
2023-05-02T03:12:55.672Z,12.40
2023-05-02T03:15:41.635Z,12.40
2023-05-02T03:18:08.688Z,12.50
2023-05-02T03:20:35.416Z,12.50
2023-05-02T03:23:02.624Z,12.60
2023-05-02T03:25:29.666Z,12.80
2023-05-02T03:27:57.990Z,12.90
2023-05-02T03:30:24.704Z,13.00
2023-05-02T03:32:51.549Z,13.00
2023-05-02T03:35:18.529Z,12.90
2023-05-02T03:37:45.715Z,13.00
2023-05-02T03:40:12.992Z,13.00
2023-05-02T03:42:40.032Z,13.10
2023-05-02T03:45:07.719Z,13.20
2023-05-02T03:47:37.141Z,13.40
2023-05-02T03:50:04.093Z,13.60
2023-05-02T03:52:31.228Z,13.90
2023-05-02T03:54:57.915Z,14.00
2023-05-02T03:57:25.021Z,14.00
2023-05-02T03:59:53.638Z,13.80
2023-05-02T04:02:20.757Z,13.80
2023-05-02T04:04:47.771Z,13.50
2023-05-02T04:07:18.757Z,13.50
2023-05-02T04:09:46.090Z,13.50
2023-05-02T04:12:13.178Z,13.50
2023-05-02T04:14:40.023Z,13.60
2023-05-02T04:17:07.042Z,13.60
2023-05-02T04:19:35.912Z,13.40
2023-05-02T04:22:03.454Z,13.30
2023-05-02T04:24:30.216Z,13.30
2023-05-02T04:26:56.973Z,13.20
2023-05-02T04:29:23.709Z,13.20
2023-05-02T04:31:51.578Z,13.30
2023-05-02T04:34:18.661Z,13.20
2023-05-02T04:36:46.900Z,13.20
2023-05-02T04:39:13.612Z,13.20
2023-05-02T04:41:43.120Z,13.40
2023-05-02T04:44:12.219Z,13.30
2023-05-02T04:46:38.953Z,13.20
2023-05-02T04:49:07.006Z,13.30
2023-05-02T04:51:33.740Z,13.30
2023-05-02T04:54:00.962Z,13.40
2023-05-02T04:56:27.676Z,13.20
2023-05-02T04:58:54.421Z,13.20
2023-05-02T05:01:24.533Z,13.40
2023-05-02T05:03:51.491Z,13.50
2023-05-02T05:06:19.833Z,13.50
2023-05-02T05:08:46.636Z,13.80
2023-05-02T05:11:16.596Z,14.00
2023-05-02T05:13:43.310Z,14.10
2023-05-02T05:16:10.506Z,14.10
2023-05-02T05:18:41.092Z,14.20
2023-05-02T05:21:09.138Z,14.20
2023-05-02T05:23:36.810Z,14.20
2023-05-02T05:26:14.419Z,14.40
2023-05-02T05:28:41.571Z,14.50
2023-05-02T05:31:09.820Z,14.50
2023-05-02T05:33:38.144Z,14.60
2023-05-02T05:36:14.990Z,14.50
2023-05-02T05:38:42.296Z,14.50
2023-05-02T05:41:09.489Z,14.40
2023-05-02T05:43:37.954Z,14.70
2023-05-02T05:46:06.000Z,14.80
2023-05-02T05:48:32.781Z,14.90
2023-05-02T05:51:07.077Z,15.00
2023-05-02T05:53:34.429Z,15.20
2023-05-02T05:56:09.589Z,15.40
2023-05-02T05:58:38.927Z,15.50
2023-05-02T06:01:06.637Z,15.40
2023-05-02T06:03:34.942Z,15.70
2023-05-02T06:06:02.027Z,15.90
2023-05-02T06:08:30.566Z,16.00
2023-05-02T06:10:57.740Z,15.90
2023-05-02T06:13:24.530Z,16.00
2023-05-02T06:15:51.618Z,16.10
2023-05-02T06:18:18.650Z,16.30
2023-05-02T06:20:45.689Z,16.40
2023-05-02T06:23:12.448Z,16.70
2023-05-02T06:25:41.331Z,16.90
2023-05-02T06:28:09.501Z,17.00
2023-05-02T06:30:39.427Z,17.20
2023-05-02T06:33:07.908Z,17.20
2023-05-02T06:35:35.647Z,16.90
2023-05-02T06:38:04.658Z,16.90
2023-05-02T06:40:31.342Z,16.70
2023-05-02T06:42:58.045Z,16.90
2023-05-02T06:45:25.191Z,16.80
2023-05-02T06:47:52.072Z,16.80
2023-05-02T06:50:22.050Z,16.70
2023-05-02T06:52:49.963Z,16.80
2023-05-02T06:55:16.938Z,17.00
2023-05-02T06:57:43.797Z,17.30
2023-05-02T07:00:11.089Z,17.70
2023-05-02T07:02:40.744Z,17.90
2023-05-02T07:05:09.320Z,18.20
2023-05-02T07:07:36.611Z,18.40
2023-05-02T07:10:04.364Z,18.60
2023-05-02T07:12:31.318Z,18.80
2023-05-02T07:14:57.983Z,19.20
2023-05-02T07:17:25.997Z,19.80
2023-05-02T07:19:53.069Z,20.40
2023-05-02T07:22:21.354Z,21.00
2023-05-02T07:24:56.864Z,21.40
2023-05-02T07:27:24.048Z,21.90
2023-05-02T07:29:51.531Z,22.30
2023-05-02T07:32:18.391Z,21.90
2023-05-02T07:34:45.394Z,21.80
2023-05-02T07:37:12.072Z,21.90
2023-05-02T07:39:38.810Z,22.30
2023-05-02T07:42:07.251Z,22.10
2023-05-02T07:44:35.171Z,22.20
2023-05-02T07:47:01.897Z,21.90
2023-05-02T07:49:28.742Z,21.80
2023-05-02T07:51:56.726Z,22.10
2023-05-02T07:54:26.542Z,22.50
2023-05-02T07:56:53.791Z,22.20
2023-05-02T07:59:21.001Z,22.00
2023-05-02T08:01:48.183Z,22.00
2023-05-02T08:04:15.297Z,21.70
2023-05-02T08:06:45.312Z,21.50
2023-05-02T08:09:12.144Z,21.80
2023-05-02T08:11:38.818Z,22.30
2023-05-02T08:14:05.601Z,22.70
2023-05-02T08:16:32.856Z,23.50
2023-05-02T08:18:59.647Z,23.30
2023-05-02T08:21:27.659Z,22.70
2023-05-02T08:23:59.351Z,22.40
2023-05-02T08:26:26.281Z,22.30
2023-05-02T08:28:55.224Z,22.20
2023-05-02T08:31:22.081Z,22.00
2023-05-02T08:33:49.423Z,21.80
2023-05-02T08:36:17.705Z,22.20
2023-05-02T08:38:45.770Z,22.40
2023-05-02T08:41:17.823Z,22.60
2023-05-02T08:43:46.722Z,22.70
2023-05-02T08:46:16.002Z,22.70
2023-05-02T08:48:45.468Z,22.50
2023-05-02T08:51:14.540Z,22.20
2023-05-02T08:53:42.269Z,21.80
2023-05-02T08:56:10.745Z,21.90
2023-05-02T08:58:38.916Z,21.30
2023-05-02T09:01:21.366Z,21.00
2023-05-02T09:03:52.372Z,21.20
2023-05-02T09:06:22.270Z,21.20
2023-05-02T09:08:52.536Z,21.00
2023-05-02T09:11:23.650Z,20.90
2023-05-02T09:13:54.813Z,21.00
2023-05-02T09:16:26.186Z,20.80
2023-05-02T09:18:55.361Z,20.70
2023-05-02T09:21:25.568Z,20.80
2023-05-02T09:23:58.120Z,20.90
2023-05-02T09:26:33.521Z,21.20
2023-05-02T09:29:03.115Z,21.40
2023-05-02T09:34:12.035Z,21.80
2023-05-02T09:36:47.102Z,21.80
2023-05-02T09:39:16.412Z,21.90
2023-05-02T09:41:46.069Z,21.70
2023-05-02T09:44:15.476Z,22.10
2023-05-02T09:46:47.557Z,22.20
2023-05-02T09:49:15.484Z,22.20
2023-05-02T09:51:44.988Z,22.00
2023-05-02T09:54:16.886Z,22.00
2023-05-02T09:56:56.929Z,21.90
2023-05-02T09:59:24.634Z,22.00
2023-05-02T10:02:02.563Z,22.40
2023-05-02T10:04:32.366Z,22.60
2023-05-02T10:07:01.091Z,22.60
2023-05-02T10:09:29.847Z,22.40
2023-05-02T10:11:56.846Z,22.50
2023-05-02T10:14:29.609Z,22.50
2023-05-02T10:17:13.194Z,22.70
2023-05-02T10:19:55.805Z,22.90
2023-05-02T10:22:23.644Z,23.10
2023-05-02T10:24:53.492Z,23.00
2023-05-02T10:27:20.488Z,23.00
2023-05-02T10:29:48.557Z,23.00
2023-05-02T10:32:18.063Z,23.10
2023-05-02T10:34:46.345Z,23.00
2023-05-02T10:37:15.358Z,23.20
2023-05-02T10:39:42.176Z,23.20
2023-05-02T10:42:10.932Z,23.30
2023-05-02T10:44:40.165Z,23.70
2023-05-02T10:47:24.314Z,23.60
2023-05-02T10:50:02.089Z,23.70
2023-05-02T10:52:39.596Z,23.90
2023-05-02T10:55:23.825Z,23.80
2023-05-02T10:58:13.234Z,23.90
2023-05-02T11:00:40.041Z,23.70
2023-05-02T11:03:06.934Z,23.80
2023-05-02T11:06:07.854Z,23.60
2023-05-02T11:08:36.159Z,23.40
2023-05-02T11:11:38.583Z,23.30
2023-05-02T11:14:05.337Z,23.30
2023-05-02T11:17:11.227Z,23.40
2023-05-02T11:19:37.908Z,23.50
2023-05-02T11:22:28.646Z,23.20
2023-05-02T11:24:56.580Z,23.10
2023-05-02T11:27:29.839Z,23.20
2023-05-02T11:30:07.146Z,23.50
2023-05-02T11:32:50.241Z,23.50
2023-05-02T11:35:24.999Z,23.50
2023-05-02T11:37:56.295Z,23.30
2023-05-02T11:40:23.799Z,23.30
2023-05-02T11:42:50.774Z,23.30
2023-05-02T11:45:19.249Z,23.50
2023-05-02T11:47:48.473Z,23.40
2023-05-02T11:50:16.152Z,23.70
2023-05-02T11:52:44.658Z,24.00
2023-05-02T11:55:15.021Z,24.20
2023-05-02T11:57:43.001Z,24.10
2023-05-02T12:00:13.355Z,23.90
2023-05-02T12:02:47.952Z,23.90
2023-05-02T12:05:15.776Z,23.70
2023-05-02T12:07:49.486Z,24.10
2023-05-02T12:10:16.264Z,24.10
2023-05-02T12:12:45.271Z,24.10
2023-05-02T12:15:12.841Z,24.10
2023-05-02T12:17:42.298Z,24.10
2023-05-02T12:20:13.034Z,24.10
2023-05-02T12:22:40.331Z,24.10
2023-05-02T12:25:08.334Z,24.20
2023-05-02T12:27:35.381Z,24.10
2023-05-02T12:30:03.080Z,24.00
2023-05-02T12:32:32.345Z,23.80
2023-05-02T12:35:00.181Z,23.90
2023-05-02T12:37:28.713Z,24.10
2023-05-02T12:39:57.175Z,23.90
2023-05-02T12:42:26.354Z,23.60
2023-05-02T12:44:54.920Z,22.10
2023-05-02T12:47:23.320Z,20.30
2023-05-02T12:49:53.893Z,19.30
2023-05-02T12:52:22.842Z,18.70
2023-05-02T12:54:50.256Z,18.60
2023-05-02T12:57:24.448Z,18.30
2023-05-02T12:59:57.040Z,18.00
2023-05-02T13:02:25.989Z,17.10
2023-05-02T13:04:54.629Z,16.60
2023-05-02T13:07:21.328Z,16.40
2023-05-02T13:09:48.159Z,16.40
2023-05-02T13:12:16.717Z,16.60
2023-05-02T13:14:43.909Z,16.80
2023-05-02T13:17:11.547Z,17.00
2023-05-02T13:19:47.551Z,17.40
2023-05-02T13:22:22.000Z,17.50
2023-05-02T13:24:48.828Z,17.80
2023-05-02T13:27:18.351Z,17.80
2023-05-02T13:29:45.938Z,17.80
2023-05-02T13:32:13.185Z,18.10
2023-05-02T13:34:39.878Z,18.70
2023-05-02T13:37:06.737Z,19.10
2023-05-02T13:39:33.530Z,19.40
2023-05-02T13:42:03.607Z,19.50
2023-05-02T13:44:31.943Z,19.50
2023-05-02T13:47:01.090Z,19.50
2023-05-02T13:49:31.033Z,19.40
2023-05-02T13:51:59.874Z,19.50
2023-05-02T13:54:26.810Z,19.60
2023-05-02T13:56:54.042Z,19.70
2023-05-02T13:59:21.107Z,19.80
2023-05-02T14:01:48.836Z,19.80
2023-05-02T14:04:17.159Z,19.60
2023-05-02T14:06:44.153Z,20.10
2023-05-02T14:09:14.365Z,20.50
2023-05-02T14:11:41.109Z,20.50
2023-05-02T14:14:09.688Z,20.60
2023-05-02T14:16:36.482Z,20.70
2023-05-02T14:19:03.238Z,21.10
2023-05-02T14:21:29.926Z,21.30
2023-05-02T14:23:56.615Z,21.50
2023-05-02T14:26:23.477Z,21.70
2023-05-02T14:28:50.606Z,21.70
2023-05-02T14:31:17.759Z,21.60
2023-05-02T14:33:45.074Z,21.50
2023-05-02T14:36:13.447Z,21.30
2023-05-02T14:38:40.129Z,20.80
2023-05-02T14:41:07.458Z,20.80
2023-05-02T14:43:36.559Z,20.40
2023-05-02T14:46:04.011Z,20.50
2023-05-02T14:48:30.721Z,20.70
2023-05-02T14:50:59.187Z,21.00
2023-05-02T14:53:26.943Z,21.00
2023-05-02T14:55:55.015Z,21.00
2023-05-02T14:58:21.793Z,21.10
2023-05-02T15:00:48.802Z,21.10
2023-05-02T15:03:15.635Z,21.40
2023-05-02T15:05:42.858Z,21.50
2023-05-02T15:08:09.700Z,21.60
2023-05-02T15:10:40.192Z,21.80
2023-05-02T15:13:07.636Z,21.80
2023-05-02T15:15:34.678Z,21.60
2023-05-02T15:18:03.510Z,21.40
2023-05-02T15:20:33.111Z,21.20
2023-05-02T15:23:04.059Z,21.10
2023-05-02T15:25:31.183Z,20.90
2023-05-02T15:27:57.982Z,20.80
2023-05-02T15:30:26.502Z,20.50
2023-05-02T15:32:53.282Z,20.60
2023-05-02T15:35:22.562Z,20.90
2023-05-02T15:37:50.695Z,20.70
2023-05-02T15:40:20.155Z,20.40
2023-05-02T15:42:47.789Z,20.40
2023-05-02T15:45:17.287Z,20.40
2023-05-02T15:47:44.021Z,20.10
2023-05-02T15:50:11.459Z,19.90
2023-05-02T15:52:39.786Z,19.80
2023-05-02T15:55:06.777Z,19.40
2023-05-02T15:57:33.810Z,19.10
2023-05-02T16:00:03.518Z,18.80
2023-05-02T16:02:31.304Z,18.60
2023-05-02T16:04:58.265Z,18.40
2023-05-02T16:07:25.057Z,18.30
2023-05-02T16:09:51.990Z,18.40
2023-05-02T16:12:18.748Z,18.30
2023-05-02T16:14:47.623Z,18.30
2023-05-02T16:17:14.358Z,18.30
2023-05-02T16:19:41.150Z,18.30
2023-05-02T16:22:10.312Z,18.30
2023-05-02T16:24:37.605Z,18.20
2023-05-02T16:27:05.230Z,18.20
2023-05-02T16:29:32.725Z,18.00
2023-05-02T16:32:00.158Z,17.90
2023-05-02T16:34:29.147Z,17.70
2023-05-02T16:36:57.437Z,17.80
2023-05-02T16:39:24.494Z,17.70
2023-05-02T16:41:51.201Z,17.60
2023-05-02T16:44:18.418Z,17.50
2023-05-02T16:46:46.947Z,17.40
2023-05-02T16:49:14.055Z,17.30
2023-05-02T16:51:42.458Z,17.40
2023-05-02T16:54:09.550Z,17.20
2023-05-02T16:56:36.613Z,17.20
2023-05-02T16:59:07.345Z,17.20
2023-05-02T17:01:36.622Z,17.20
2023-05-02T17:04:11.205Z,17.10
2023-05-02T17:06:38.048Z,17.20
2023-05-02T17:09:04.879Z,17.10
2023-05-02T17:11:31.636Z,17.10
2023-05-02T17:13:59.077Z,17.00
2023-05-02T17:16:28.038Z,16.80
2023-05-02T17:18:57.047Z,16.80
2023-05-02T17:21:24.366Z,16.70
2023-05-02T17:23:54.249Z,16.70
2023-05-02T17:26:21.102Z,16.70
2023-05-02T17:28:50.792Z,16.60
2023-05-02T17:31:17.549Z,16.60
2023-05-02T17:33:48.548Z,16.50
2023-05-02T17:36:26.656Z,16.50
2023-05-02T17:38:55.029Z,16.50
2023-05-02T17:41:21.901Z,16.60
2023-05-02T17:43:49.230Z,16.60
2023-05-02T17:46:16.465Z,16.60
2023-05-02T17:48:47.776Z,16.40
2023-05-02T17:51:18.028Z,16.40
2023-05-02T17:53:49.643Z,16.40
2023-05-02T17:56:20.846Z,16.20
2023-05-02T17:58:55.532Z,16.20
2023-05-02T18:01:25.443Z,16.10
2023-05-02T18:03:55.564Z,16.20
2023-05-02T18:06:22.429Z,16.20
2023-05-02T18:08:50.842Z,16.30
2023-05-02T18:11:19.150Z,16.30
2023-05-02T18:13:49.012Z,16.20
2023-05-02T18:16:15.883Z,16.20
2023-05-02T18:18:42.676Z,16.10
2023-05-02T18:21:12.559Z,16.10
2023-05-02T18:23:41.367Z,16.00
2023-05-02T18:26:15.061Z,15.70
2023-05-02T18:28:44.458Z,15.40
2023-05-02T18:31:17.760Z,15.30
2023-05-02T18:33:45.747Z,15.30
2023-05-02T18:36:14.093Z,15.40
2023-05-02T18:38:42.698Z,15.40
2023-05-02T18:41:09.424Z,15.40
2023-05-02T18:43:36.740Z,15.40
2023-05-02T18:46:05.815Z,15.40
2023-05-02T18:48:33.231Z,15.30
2023-05-02T18:51:00.524Z,15.20
2023-05-02T18:53:27.823Z,15.20
2023-05-02T18:55:58.007Z,15.20
2023-05-02T18:58:28.201Z,15.10
2023-05-02T19:00:57.671Z,15.10
2023-05-02T19:03:25.801Z,15.10
2023-05-02T19:05:53.338Z,15.00
2023-05-02T19:08:20.220Z,15.00
2023-05-02T19:10:47.429Z,14.90
2023-05-02T19:13:14.624Z,14.80
2023-05-02T19:15:41.608Z,14.80
2023-05-02T19:18:08.757Z,14.60
2023-05-02T19:20:35.950Z,14.60
2023-05-02T19:23:19.054Z,14.60
2023-05-02T19:25:47.216Z,14.40
2023-05-02T19:28:16.042Z,14.50
2023-05-02T19:30:45.575Z,14.40
2023-05-02T19:33:12.581Z,14.40
2023-05-02T19:35:39.903Z,14.30
2023-05-02T19:38:06.692Z,14.20
2023-05-02T19:40:33.699Z,14.20
2023-05-02T19:43:00.666Z,14.20
2023-05-02T19:45:27.812Z,14.20
2023-05-02T19:47:56.694Z,14.30
2023-05-02T19:50:26.652Z,14.30
2023-05-02T19:52:53.422Z,14.30
2023-05-02T19:55:21.196Z,14.30
2023-05-02T19:57:48.860Z,14.20
2023-05-02T20:00:16.194Z,14.20
2023-05-02T20:02:43.135Z,14.20
2023-05-02T20:05:10.686Z,14.20
2023-05-02T20:07:37.485Z,14.00
2023-05-02T20:10:05.053Z,14.10
2023-05-02T20:12:32.033Z,14.00
2023-05-02T20:14:58.845Z,13.80
2023-05-02T20:17:25.979Z,13.90
2023-05-02T20:19:52.819Z,13.80
2023-05-02T20:22:19.971Z,13.70
2023-05-02T20:24:48.119Z,13.70
2023-05-02T20:27:20.731Z,13.70
2023-05-02T20:29:47.680Z,13.70
2023-05-02T20:32:14.640Z,13.70
2023-05-02T20:34:41.701Z,13.70
2023-05-02T20:37:08.813Z,13.70
2023-05-02T20:39:36.526Z,13.70
2023-05-02T20:42:06.083Z,13.70
2023-05-02T20:44:36.570Z,13.70
2023-05-02T20:47:06.884Z,13.70
2023-05-02T20:49:33.957Z,13.70
2023-05-02T20:52:06.061Z,13.70
2023-05-02T20:54:32.804Z,13.60
2023-05-02T20:57:00.084Z,13.70
2023-05-02T20:59:26.908Z,13.60
2023-05-02T21:01:53.891Z,13.60
2023-05-02T21:04:21.277Z,13.50
2023-05-02T21:06:51.644Z,13.60
2023-05-02T21:09:24.277Z,13.50
2023-05-02T21:11:50.996Z,13.50
2023-05-02T21:14:17.767Z,13.50
2023-05-02T21:16:44.740Z,13.50
2023-05-02T21:19:11.871Z,13.40
2023-05-02T21:21:38.869Z,13.40
2023-05-02T21:24:06.481Z,13.40
2023-05-02T21:26:34.380Z,13.40
2023-05-02T21:29:01.218Z,13.30
2023-05-02T21:31:28.232Z,13.20
2023-05-02T21:33:54.920Z,13.30
2023-05-02T21:36:22.120Z,13.20
2023-05-02T21:38:48.802Z,13.20
2023-05-02T21:41:15.528Z,13.20
2023-05-02T21:43:42.678Z,13.20
2023-05-02T21:46:11.817Z,13.10
2023-05-02T21:48:39.332Z,13.00
2023-05-02T21:51:10.765Z,13.20
2023-05-02T21:53:38.000Z,13.10
2023-05-02T21:56:06.506Z,13.10
2023-05-02T21:58:35.532Z,13.10
2023-05-02T22:01:03.438Z,13.10
2023-05-02T22:03:30.998Z,13.00
2023-05-02T22:06:06.839Z,13.00
2023-05-02T22:08:34.175Z,13.00
2023-05-02T22:11:04.953Z,12.90
2023-05-02T22:13:32.071Z,13.00
2023-05-02T22:15:59.008Z,12.90
2023-05-02T22:18:26.178Z,12.90
2023-05-02T22:20:52.986Z,12.80
2023-05-02T22:23:20.445Z,12.80
2023-05-02T22:25:48.277Z,12.80
2023-05-02T22:28:17.214Z,12.80
2023-05-02T22:30:45.222Z,12.70
2023-05-02T22:33:13.130Z,12.70
2023-05-02T22:35:40.515Z,12.70
2023-05-02T22:38:10.944Z,12.60
2023-05-02T22:40:38.232Z,12.70
2023-05-02T22:43:05.585Z,12.70
2023-05-02T22:45:33.918Z,12.80
2023-05-02T22:48:01.251Z,12.80
2023-05-02T22:50:28.992Z,12.70
2023-05-02T22:52:59.966Z,12.60
2023-05-02T22:55:26.664Z,12.50
2023-05-02T22:57:53.430Z,12.40
2023-05-02T23:00:21.030Z,12.40
2023-05-02T23:02:47.759Z,12.40
2023-05-02T23:05:19.392Z,12.40
2023-05-02T23:07:50.795Z,12.40
2023-05-02T23:10:18.274Z,12.40
2023-05-02T23:12:45.325Z,12.40
2023-05-02T23:15:12.424Z,12.40
2023-05-02T23:17:41.501Z,12.20
2023-05-02T23:20:12.918Z,12.20
2023-05-02T23:22:46.105Z,12.20
2023-05-02T23:25:15.633Z,12.30
2023-05-02T23:27:44.503Z,12.20
2023-05-02T23:30:11.748Z,12.10
2023-05-02T23:32:39.661Z,12.10
2023-05-02T23:35:07.264Z,12.00
2023-05-02T23:37:34.269Z,12.00
2023-05-02T23:40:01.469Z,11.90
2023-05-02T23:42:30.145Z,11.90
2023-05-02T23:45:06.356Z,11.90
2023-05-02T23:47:33.169Z,11.90
2023-05-02T23:50:00.450Z,11.80
2023-05-02T23:52:27.946Z,11.80
2023-05-02T23:54:55.789Z,11.80
2023-05-02T23:57:22.544Z,11.70
2023-05-02T23:59:52.663Z,11.70
